sensor_id;sensor_type;location;lat;lon;timestamp;pressure;altitude;pressure_sealevel;temperature;humidity
26865;BME280;40618;51.166;10.322;2022-10-24T00:00:31;96935.34;;;12.40;88.09
26865;BME280;40618;51.166;10.322;2022-10-24T00:02:57;96940.53;;;12.40;87.97
26865;BME280;40618;51.166;10.322;2022-10-24T00:05:23;96942.28;;;12.39;88.18
26865;BME280;40618;51.166;10.322;2022-10-24T00:07:50;96931.00;;;12.40;88.08
26865;BME280;40618;51.166;10.322;2022-10-24T00:10:16;96934.50;;;12.39;88.32
26865;BME280;40618;51.166;10.322;2022-10-24T00:12:43;96933.69;;;12.39;88.03
26865;BME280;40618;51.166;10.322;2022-10-24T00:15:09;96934.66;;;12.36;88.16
26865;BME280;40618;51.166;10.322;2022-10-24T00:17:35;96930.44;;;12.33;88.08
26865;BME280;40618;51.166;10.322;2022-10-24T00:20:01;96936.47;;;12.34;88.01
26865;BME280;40618;51.166;10.322;2022-10-24T00:22:28;96926.06;;;12.34;88.16
26865;BME280;40618;51.166;10.322;2022-10-24T00:24:53;96926.94;;;12.34;87.91
26865;BME280;40618;51.166;10.322;2022-10-24T00:27:19;96924.28;;;12.36;88.26
26865;BME280;40618;51.166;10.322;2022-10-24T00:29:45;96931.16;;;12.37;88.17
26865;BME280;40618;51.166;10.322;2022-10-24T00:32:10;96927.69;;;12.36;88.08
26865;BME280;40618;51.166;10.322;2022-10-24T00:34:36;96922.56;;;12.35;88.15
26865;BME280;40618;51.166;10.322;2022-10-24T00:37:03;96926.22;;;12.31;87.86
26865;BME280;40618;51.166;10.322;2022-10-24T00:39:29;96931.75;;;12.23;88.02
26865;BME280;40618;51.166;10.322;2022-10-24T00:41:54;96932.81;;;12.19;88.01
26865;BME280;40618;51.166;10.322;2022-10-24T00:44:32;96938.34;;;12.11;87.81
26865;BME280;40618;51.166;10.322;2022-10-24T00:47:02;96930.16;;;12.01;88.12
26865;BME280;40618;51.166;10.322;2022-10-24T00:49:53;96937.97;;;12.00;88.21
26865;BME280;40618;51.166;10.322;2022-10-24T00:52:30;96950.91;;;12.01;87.87
26865;BME280;40618;51.166;10.322;2022-10-24T00:55:02;96946.41;;;12.05;88.19
26865;BME280;40618;51.166;10.322;2022-10-24T00:57:37;96941.94;;;12.09;88.20
26865;BME280;40618;51.166;10.322;2022-10-24T01:00:17;96944.38;;;12.12;88.14
26865;BME280;40618;51.166;10.322;2022-10-24T01:02:45;96955.53;;;12.14;88.18
26865;BME280;40618;51.166;10.322;2022-10-24T01:05:12;96956.38;;;12.14;88.20
26865;BME280;40618;51.166;10.322;2022-10-24T01:07:58;96958.06;;;12.15;88.13
26865;BME280;40618;51.166;10.322;2022-10-24T01:10:52;96952.97;;;12.14;88.21
26865;BME280;40618;51.166;10.322;2022-10-24T01:13:39;96952.97;;;12.14;88.13
26865;BME280;40618;51.166;10.322;2022-10-24T01:16:21;96947.81;;;12.12;88.34
26865;BME280;40618;51.166;10.322;2022-10-24T01:21:29;96953.84;;;12.13;88.01
26865;BME280;40618;51.166;10.322;2022-10-24T01:24:16;96956.53;;;12.11;88.31
26865;BME280;40618;51.166;10.322;2022-10-24T01:29:58;96945.50;;;12.06;88.51
26865;BME280;40618;51.166;10.322;2022-10-24T01:38:06;96940.38;;;12.05;88.18
26865;BME280;40618;51.166;10.322;2022-10-24T01:40:52;96939.53;;;12.04;88.32
26865;BME280;40618;51.166;10.322;2022-10-24T01:43:29;96933.56;;;12.02;88.13
26865;BME280;40618;51.166;10.322;2022-10-24T01:46:02;96935.34;;;12.01;88.21
26865;BME280;40618;51.166;10.322;2022-10-24T01:48:34;96934.63;;;11.98;88.03
26865;BME280;40618;51.166;10.322;2022-10-24T01:51:06;96939.09;;;11.94;88.07
26865;BME280;40618;51.166;10.322;2022-10-24T01:53:34;96927.13;;;11.90;88.10
26865;BME280;40618;51.166;10.322;2022-10-24T01:56:01;96935.13;;;11.85;88.07
26865;BME280;40618;51.166;10.322;2022-10-24T01:58:26;96928.44;;;11.80;88.20
26865;BME280;40618;51.166;10.322;2022-10-24T02:00:54;96924.38;;;11.74;87.93
26865;BME280;40618;51.166;10.322;2022-10-24T02:03:45;96914.13;;;11.71;87.99
26865;BME280;40618;51.166;10.322;2022-10-24T02:06:25;96915.03;;;11.70;88.16
26865;BME280;40618;51.166;10.322;2022-10-24T02:08:56;96910.75;;;11.69;88.30
26865;BME280;40618;51.166;10.322;2022-10-24T02:11:25;96912.50;;;11.68;88.42
26865;BME280;40618;51.166;10.322;2022-10-24T02:14:13;96915.88;;;11.71;88.14
26865;BME280;40618;51.166;10.322;2022-10-24T02:16:43;96913.28;;;11.71;88.45
26865;BME280;40618;51.166;10.322;2022-10-24T02:19:10;96913.44;;;11.67;88.31
26865;BME280;40618;51.166;10.322;2022-10-24T02:21:58;96920.47;;;11.64;88.23
26865;BME280;40618;51.166;10.322;2022-10-24T02:24:32;96914.56;;;11.60;87.96
26865;BME280;40618;51.166;10.322;2022-10-24T02:27:42;96915.69;;;11.55;87.92
26865;BME280;40618;51.166;10.322;2022-10-24T02:30:16;96916.59;;;11.54;88.36
26865;BME280;40618;51.166;10.322;2022-10-24T02:32:49;96919.97;;;11.56;88.18
26865;BME280;40618;51.166;10.322;2022-10-24T02:35:20;96917.50;;;11.52;88.15
26865;BME280;40618;51.166;10.322;2022-10-24T02:37:54;96928.00;;;11.49;88.29
26865;BME280;40618;51.166;10.322;2022-10-24T02:40:24;96923.84;;;11.45;87.96
26865;BME280;40618;51.166;10.322;2022-10-24T02:42:53;96917.09;;;11.41;88.00
26865;BME280;40618;51.166;10.322;2022-10-24T02:45:21;96916.34;;;11.39;88.27
26865;BME280;40618;51.166;10.322;2022-10-24T02:47:51;96911.97;;;11.40;88.36
26865;BME280;40618;51.166;10.322;2022-10-24T02:50:22;96917.97;;;11.42;88.35
26865;BME280;40618;51.166;10.322;2022-10-24T02:52:48;96909.47;;;11.38;88.28
26865;BME280;40618;51.166;10.322;2022-10-24T02:55:14;96909.59;;;11.35;88.45
26865;BME280;40618;51.166;10.322;2022-10-24T02:57:39;96907.06;;;11.33;88.41
26865;BME280;40618;51.166;10.322;2022-10-24T03:00:06;96897.69;;;11.31;88.26
26865;BME280;40618;51.166;10.322;2022-10-24T03:02:32;96908.03;;;11.31;88.09
26865;BME280;40618;51.166;10.322;2022-10-24T03:04:58;96902.03;;;11.30;88.47
26865;BME280;40618;51.166;10.322;2022-10-24T03:07:24;96898.66;;;11.28;88.48
26865;BME280;40618;51.166;10.322;2022-10-24T03:09:50;96900.47;;;11.26;88.43
26865;BME280;40618;51.166;10.322;2022-10-24T03:12:16;96906.50;;;11.27;88.37
26865;BME280;40618;51.166;10.322;2022-10-24T03:14:42;96897.88;;;11.26;88.25
26865;BME280;40618;51.166;10.322;2022-10-24T03:17:08;96895.31;;;11.25;88.58
26865;BME280;40618;51.166;10.322;2022-10-24T03:19:33;96901.44;;;11.24;88.23
26865;BME280;40618;51.166;10.322;2022-10-24T03:21:59;96905.00;;;11.21;88.22
26865;BME280;40618;51.166;10.322;2022-10-24T03:24:25;96903.44;;;11.17;88.10
26865;BME280;40618;51.166;10.322;2022-10-24T03:26:50;96904.34;;;11.16;88.34
26865;BME280;40618;51.166;10.322;2022-10-24T03:29:17;96900.13;;;11.13;88.21
26865;BME280;40618;51.166;10.322;2022-10-24T03:31:43;96907.06;;;11.13;88.03
26865;BME280;40618;51.166;10.322;2022-10-24T03:34:09;96908.78;;;11.12;88.24
26865;BME280;40618;51.166;10.322;2022-10-24T03:36:34;96897.78;;;11.07;88.20
26865;BME280;40618;51.166;10.322;2022-10-24T03:39:00;96896.94;;;11.07;88.12
26865;BME280;40618;51.166;10.322;2022-10-24T03:41:26;96884.94;;;11.04;88.45
26865;BME280;40618;51.166;10.322;2022-10-24T03:43:51;96884.31;;;10.99;88.21
26865;BME280;40618;51.166;10.322;2022-10-24T03:46:17;96884.41;;;10.96;88.14
26865;BME280;40618;51.166;10.322;2022-10-24T03:48:42;96887.22;;;10.91;88.12
26865;BME280;40618;51.166;10.322;2022-10-24T03:51:08;96881.13;;;10.92;88.18
26865;BME280;40618;51.166;10.322;2022-10-24T03:53:34;96871.66;;;10.91;88.36
26865;BME280;40618;51.166;10.322;2022-10-24T03:55:59;96862.19;;;10.90;88.43
26865;BME280;40618;51.166;10.322;2022-10-24T03:58:26;96875.16;;;10.90;88.38
26865;BME280;40618;51.166;10.322;2022-10-24T04:00:52;96869.91;;;10.92;88.14
26865;BME280;40618;51.166;10.322;2022-10-24T04:03:19;96872.56;;;10.90;88.20
26865;BME280;40618;51.166;10.322;2022-10-24T04:05:44;96878.53;;;10.92;88.44
26865;BME280;40618;51.166;10.322;2022-10-24T04:08:10;96878.34;;;10.97;88.11
26865;BME280;40618;51.166;10.322;2022-10-24T04:10:36;96874.84;;;10.98;88.43
26865;BME280;40618;51.166;10.322;2022-10-24T04:13:02;96885.22;;;10.98;88.20
26865;BME280;40618;51.166;10.322;2022-10-24T04:15:27;96882.63;;;10.98;88.25
26865;BME280;40618;51.166;10.322;2022-10-24T04:17:53;96891.16;;;11.00;88.32
26865;BME280;40618;51.166;10.322;2022-10-24T04:20:18;96891.22;;;10.98;87.96
26865;BME280;40618;51.166;10.322;2022-10-24T04:22:47;96895.56;;;10.98;88.11
26865;BME280;40618;51.166;10.322;2022-10-24T04:25:14;96905.06;;;10.97;88.32
26865;BME280;40618;51.166;10.322;2022-10-24T04:27:40;96904.44;;;10.92;88.25
26865;BME280;40618;51.166;10.322;2022-10-24T04:30:10;96903.78;;;10.87;88.04
26865;BME280;40618;51.166;10.322;2022-10-24T04:32:37;96899.69;;;10.81;87.90
26865;BME280;40618;51.166;10.322;2022-10-24T04:35:04;96904.06;;;10.79;87.77
26865;BME280;40618;51.166;10.322;2022-10-24T04:37:30;96906.00;;;10.74;88.13
26865;BME280;40618;51.166;10.322;2022-10-24T04:39:56;96905.22;;;10.72;87.95
26865;BME280;40618;51.166;10.322;2022-10-24T04:42:22;96901.06;;;10.68;88.43
26865;BME280;40618;51.166;10.322;2022-10-24T04:44:49;96897.69;;;10.66;87.91
26865;BME280;40618;51.166;10.322;2022-10-24T04:47:15;96903.66;;;10.68;88.30
26865;BME280;40618;51.166;10.322;2022-10-24T04:49:41;96899.25;;;10.70;88.22
26865;BME280;40618;51.166;10.322;2022-10-24T04:52:07;96901.69;;;10.75;88.27
26865;BME280;40618;51.166;10.322;2022-10-24T04:54:33;96896.16;;;10.82;88.75
26865;BME280;40618;51.166;10.322;2022-10-24T04:56:58;96899.38;;;10.89;88.26
26865;BME280;40618;51.166;10.322;2022-10-24T04:59:24;96897.38;;;10.96;88.46
26865;BME280;40618;51.166;10.322;2022-10-24T05:01:49;96899.78;;;11.00;88.66
26865;BME280;40618;51.166;10.322;2022-10-24T05:04:15;96901.41;;;11.03;88.50
26865;BME280;40618;51.166;10.322;2022-10-24T05:06:41;96905.66;;;11.04;88.15
26865;BME280;40618;51.166;10.322;2022-10-24T05:09:07;96905.81;;;11.01;88.22
26865;BME280;40618;51.166;10.322;2022-10-24T05:11:32;96910.16;;;11.00;88.47
26865;BME280;40618;51.166;10.322;2022-10-24T05:13:58;96902.31;;;11.02;88.69
26865;BME280;40618;51.166;10.322;2022-10-24T05:16:24;96920.31;;;11.05;88.51
26865;BME280;40618;51.166;10.322;2022-10-24T05:18:49;96911.38;;;11.12;88.86
26865;BME280;40618;51.166;10.322;2022-10-24T05:21:15;96905.09;;;11.18;88.39
26865;BME280;40618;51.166;10.322;2022-10-24T05:23:41;96906.50;;;11.27;88.90
26865;BME280;40618;51.166;10.322;2022-10-24T05:26:07;96908.81;;;11.33;88.71
26865;BME280;40618;51.166;10.322;2022-10-24T05:28:33;96909.59;;;11.35;88.78
26865;BME280;40618;51.166;10.322;2022-10-24T05:30:59;96913.09;;;11.34;88.79
26865;BME280;40618;51.166;10.322;2022-10-24T05:33:25;96906.94;;;11.37;88.70
26865;BME280;40618;51.166;10.322;2022-10-24T05:35:51;96912.94;;;11.37;88.86
26865;BME280;40618;51.166;10.322;2022-10-24T05:38:17;96906.22;;;11.33;88.76
26865;BME280;40618;51.166;10.322;2022-10-24T05:40:43;96907.06;;;11.33;88.71
26865;BME280;40618;51.166;10.322;2022-10-24T05:43:14;96901.91;;;11.33;88.71
26865;BME280;40618;51.166;10.322;2022-10-24T05:45:40;96910.31;;;11.39;88.84
26865;BME280;40618;51.166;10.322;2022-10-24T05:48:06;96901.53;;;11.41;88.81
26865;BME280;40618;51.166;10.322;2022-10-24T05:50:32;96912.50;;;11.48;89.14
26865;BME280;40618;51.166;10.322;2022-10-24T05:52:59;96895.72;;;11.57;88.97
26865;BME280;40618;51.166;10.322;2022-10-24T05:55:24;96899.75;;;11.64;89.19
26865;BME280;40618;51.166;10.322;2022-10-24T05:57:50;96910.53;;;11.74;89.12
26865;BME280;40618;51.166;10.322;2022-10-24T06:00:17;96912.97;;;11.78;89.01
26865;BME280;40618;51.166;10.322;2022-10-24T06:02:43;96911.28;;;11.77;89.00
26865;BME280;40618;51.166;10.322;2022-10-24T06:05:10;96914.50;;;11.82;88.96
26865;BME280;40618;51.166;10.322;2022-10-24T06:07:36;96910.72;;;11.90;89.08
26865;BME280;40618;51.166;10.322;2022-10-24T06:10:04;96903.56;;;11.96;89.04
26865;BME280;40618;51.166;10.322;2022-10-24T06:12:31;96910.34;;;11.99;88.98
26865;BME280;40618;51.166;10.322;2022-10-24T06:14:58;96907.69;;;12.00;89.09
26865;BME280;40618;51.166;10.322;2022-10-24T06:17:24;96911.91;;;12.03;89.10
26865;BME280;40618;51.166;10.322;2022-10-24T06:19:50;96923.03;;;12.05;88.86
26865;BME280;40618;51.166;10.322;2022-10-24T06:22:16;96905.84;;;12.02;88.82
26865;BME280;40618;51.166;10.322;2022-10-24T06:24:43;96900.75;;;12.01;88.87
26865;BME280;40618;51.166;10.322;2022-10-24T06:27:09;96892.88;;;12.02;88.83
26865;BME280;40618;51.166;10.322;2022-10-24T06:29:35;96899.75;;;12.04;88.86
26865;BME280;40618;51.166;10.322;2022-10-24T06:32:01;96893.66;;;12.05;88.90
26865;BME280;40618;51.166;10.322;2022-10-24T06:34:27;96896.25;;;12.05;89.06
26865;BME280;40618;51.166;10.322;2022-10-24T06:36:52;96898.00;;;12.04;88.87
26865;BME280;40618;51.166;10.322;2022-10-24T06:39:18;96917.03;;;12.05;88.70
26865;BME280;40618;51.166;10.322;2022-10-24T06:41:44;96920.44;;;12.05;88.91
26865;BME280;40618;51.166;10.322;2022-10-24T06:44:10;96929.84;;;12.08;88.68
26865;BME280;40618;51.166;10.322;2022-10-24T06:46:35;96936.59;;;12.12;88.80
26865;BME280;40618;51.166;10.322;2022-10-24T06:49:01;96933.84;;;12.15;88.92
26865;BME280;40618;51.166;10.322;2022-10-24T06:51:26;96945.03;;;12.17;88.90
26865;BME280;40618;51.166;10.322;2022-10-24T06:53:53;96937.16;;;12.18;89.06
26865;BME280;40618;51.166;10.322;2022-10-24T06:56:18;96937.03;;;12.22;88.91
26865;BME280;40618;51.166;10.322;2022-10-24T06:58:44;96942.09;;;12.25;88.98
26865;BME280;40618;51.166;10.322;2022-10-24T07:01:13;96938.56;;;12.26;88.78
26865;BME280;40618;51.166;10.322;2022-10-24T07:03:41;96935.06;;;12.27;88.70
26865;BME280;40618;51.166;10.322;2022-10-24T07:06:28;96933.66;;;12.19;88.49
26865;BME280;40618;51.166;10.322;2022-10-24T07:08:56;96949.16;;;12.21;88.77
26865;BME280;40618;51.166;10.322;2022-10-24T07:11:23;96935.34;;;12.21;88.92
26865;BME280;40618;51.166;10.322;2022-10-24T07:13:50;96934.22;;;12.26;89.05
26865;BME280;40618;51.166;10.322;2022-10-24T07:16:16;96942.78;;;12.28;88.95
26865;BME280;40618;51.166;10.322;2022-10-24T07:18:42;96956.72;;;12.26;88.79
26865;BME280;40618;51.166;10.322;2022-10-24T07:21:11;96958.56;;;12.24;88.63
26865;BME280;40618;51.166;10.322;2022-10-24T07:23:39;96958.50;;;12.25;88.93
26865;BME280;40618;51.166;10.322;2022-10-24T07:26:08;96957.53;;;12.28;88.75
26865;BME280;40618;51.166;10.322;2022-10-24T07:28:36;96952.19;;;12.31;89.13
26865;BME280;40618;51.166;10.322;2022-10-24T07:31:03;96950.31;;;12.34;88.80
26865;BME280;40618;51.166;10.322;2022-10-24T07:33:30;96959.75;;;12.35;89.11
26865;BME280;40618;51.166;10.322;2022-10-24T07:35:56;96951.91;;;12.37;89.02
26865;BME280;40618;51.166;10.322;2022-10-24T07:38:22;96955.34;;;12.38;88.82
26865;BME280;40618;51.166;10.322;2022-10-24T07:40:48;96947.50;;;12.39;88.86
26865;BME280;40618;51.166;10.322;2022-10-24T07:43:14;96943.13;;;12.40;88.99
26865;BME280;40618;51.166;10.322;2022-10-24T07:45:39;96939.47;;;12.44;88.88
26865;BME280;40618;51.166;10.322;2022-10-24T07:48:06;96949.66;;;12.48;88.89
26865;BME280;40618;51.166;10.322;2022-10-24T07:50:33;96954.72;;;12.51;88.95
26865;BME280;40618;51.166;10.322;2022-10-24T07:52:59;96952.03;;;12.53;88.90
26865;BME280;40618;51.166;10.322;2022-10-24T07:55:25;96954.63;;;12.53;88.73
26865;BME280;40618;51.166;10.322;2022-10-24T07:57:50;96953.75;;;12.54;88.71
26865;BME280;40618;51.166;10.322;2022-10-24T08:00:16;96964.84;;;12.58;89.09
26865;BME280;40618;51.166;10.322;2022-10-24T08:02:42;96969.06;;;12.60;88.75
26865;BME280;40618;51.166;10.322;2022-10-24T08:05:09;96968.97;;;12.62;88.78
26865;BME280;40618;51.166;10.322;2022-10-24T08:07:36;96971.44;;;12.65;89.01
26865;BME280;40618;51.166;10.322;2022-10-24T08:10:03;96974.66;;;12.70;88.84
26865;BME280;40618;51.166;10.322;2022-10-24T08:12:30;96964.28;;;12.70;88.79
26865;BME280;40618;51.166;10.322;2022-10-24T08:14:55;96962.44;;;12.72;88.84
26865;BME280;40618;51.166;10.322;2022-10-24T08:17:21;96958.09;;;12.73;88.96
26865;BME280;40618;51.166;10.322;2022-10-24T08:19:48;96951.13;;;12.73;89.02
26865;BME280;40618;51.166;10.322;2022-10-24T08:22:14;96956.16;;;12.76;88.69
26865;BME280;40618;51.166;10.322;2022-10-24T08:24:44;96953.56;;;12.76;89.04
26865;BME280;40618;51.166;10.322;2022-10-24T08:27:10;96952.59;;;12.79;88.92
26865;BME280;40618;51.166;10.322;2022-10-24T08:29:36;96945.59;;;12.81;88.82
26865;BME280;40618;51.166;10.322;2022-10-24T08:32:02;96946.25;;;12.84;88.87
26865;BME280;40618;51.166;10.322;2022-10-24T08:34:27;96945.19;;;12.89;89.04
26865;BME280;40618;51.166;10.322;2022-10-24T08:36:53;96932.09;;;12.92;88.77
26865;BME280;40618;51.166;10.322;2022-10-24T08:39:19;96933.81;;;12.91;89.10
26865;BME280;40618;51.166;10.322;2022-10-24T08:41:51;96931.06;;;12.94;88.99
26865;BME280;40618;51.166;10.322;2022-10-24T08:44:32;96929.31;;;12.95;88.82
26865;BME280;40618;51.166;10.322;2022-10-24T08:50:22;96922.16;;;13.00;88.75
26865;BME280;40618;51.166;10.322;2022-10-24T08:53:16;96920.38;;;13.00;88.94
26865;BME280;40618;51.166;10.322;2022-10-24T08:55:50;96910.81;;;13.01;88.86
26865;BME280;40618;51.166;10.322;2022-10-24T09:00:51;96903.81;;;13.03;88.45
26865;BME280;40618;51.166;10.322;2022-10-24T09:06:06;96897.53;;;13.07;88.79
26865;BME280;40618;51.166;10.322;2022-10-24T09:08:57;96889.50;;;13.12;88.85
26865;BME280;40618;51.166;10.322;2022-10-24T09:11:47;96894.50;;;13.16;88.81
26865;BME280;40618;51.166;10.322;2022-10-24T09:17:10;96883.50;;;13.29;88.68
26865;BME280;40618;51.166;10.322;2022-10-24T09:19:45;96891.22;;;13.30;88.43
26865;BME280;40618;51.166;10.322;2022-10-24T09:22:16;96891.13;;;13.32;88.89
26865;BME280;40618;51.166;10.322;2022-10-24T09:27:26;96885.75;;;13.35;88.55
26865;BME280;40618;51.166;10.322;2022-10-24T09:29:55;96875.22;;;13.38;88.48
26865;BME280;40618;51.166;10.322;2022-10-24T09:32:25;96884.50;;;13.44;88.82
26865;BME280;40618;51.166;10.322;2022-10-24T09:35:05;96884.44;;;13.45;88.69
26865;BME280;40618;51.166;10.322;2022-10-24T09:37:49;96891.38;;;13.45;88.58
26865;BME280;40618;51.166;10.322;2022-10-24T09:40:31;96892.22;;;13.45;88.30
26865;BME280;40618;51.166;10.322;2022-10-24T09:45:52;96898.00;;;13.50;88.42
26865;BME280;40618;51.166;10.322;2022-10-24T09:48:29;96903.16;;;13.52;88.61
26865;BME280;40618;51.166;10.322;2022-10-24T09:51:00;96904.78;;;13.54;88.32
26865;BME280;40618;51.166;10.322;2022-10-24T09:53:39;96909.81;;;13.58;88.29
26865;BME280;40618;51.166;10.322;2022-10-24T09:56:20;96909.72;;;13.59;88.24
26865;BME280;40618;51.166;10.322;2022-10-24T09:58:46;96905.22;;;13.63;88.34
26865;BME280;40618;51.166;10.322;2022-10-24T10:03:40;96917.91;;;13.69;88.24
26865;BME280;40618;51.166;10.322;2022-10-24T10:06:20;96912.31;;;13.77;88.58
26865;BME280;40618;51.166;10.322;2022-10-24T10:08:50;96917.19;;;13.83;88.38
26865;BME280;40618;51.166;10.322;2022-10-24T10:11:29;96906.47;;;13.89;88.44
26865;BME280;40618;51.166;10.322;2022-10-24T10:13:59;96903.53;;;13.95;88.35
26865;BME280;40618;51.166;10.322;2022-10-24T10:16:31;96904.06;;;14.02;87.96
26865;BME280;40618;51.166;10.322;2022-10-24T10:19:03;96906.66;;;14.02;87.96
26865;BME280;40618;51.166;10.322;2022-10-24T10:24:35;96902.06;;;14.07;87.99
26865;BME280;40618;51.166;10.322;2022-10-24T10:27:30;96899.28;;;14.10;88.57
26865;BME280;40618;51.166;10.322;2022-10-24T10:30:19;96906.78;;;14.16;88.47
26865;BME280;40618;51.166;10.322;2022-10-24T10:35:59;96900.00;;;14.30;88.46
26865;BME280;40618;51.166;10.322;2022-10-24T10:38:47;96910.16;;;14.34;88.00
26865;BME280;40618;51.166;10.322;2022-10-24T10:41:31;96909.06;;;14.38;87.97
26865;BME280;40618;51.166;10.322;2022-10-24T10:47:24;96913.50;;;14.52;87.83
26865;BME280;40618;51.166;10.322;2022-10-24T10:49:59;96915.03;;;14.56;87.79
26865;BME280;40618;51.166;10.322;2022-10-24T10:52:30;96908.81;;;14.59;87.52
26865;BME280;40618;51.166;10.322;2022-10-24T10:55:22;96909.53;;;14.63;87.62
26865;BME280;40618;51.166;10.322;2022-10-24T11:11:45;96904.66;;;15.19;87.12
26865;BME280;40618;51.166;10.322;2022-10-24T11:14:33;96897.75;;;15.18;87.16
26865;BME280;40618;51.166;10.322;2022-10-24T11:17:11;96902.13;;;15.17;87.00
26865;BME280;40618;51.166;10.322;2022-10-24T11:20:06;96894.94;;;15.21;87.08
26865;BME280;40618;51.166;10.322;2022-10-24T11:22:57;96899.16;;;15.23;86.69
26865;BME280;40618;51.166;10.322;2022-10-24T11:25:45;96905.03;;;15.27;86.59
26865;BME280;40618;51.166;10.322;2022-10-24T11:28:28;96894.34;;;15.32;86.78
26865;BME280;40618;51.166;10.322;2022-10-24T11:31:24;96900.88;;;15.39;87.12
26865;BME280;40618;51.166;10.322;2022-10-24T11:34:13;96894.53;;;15.43;86.39
26865;BME280;40618;51.166;10.322;2022-10-24T11:36:50;96892.69;;;15.45;86.74
26865;BME280;40618;51.166;10.322;2022-10-24T11:39:22;96887.28;;;15.48;86.45
26865;BME280;40618;51.166;10.322;2022-10-24T11:42:06;96896.59;;;15.52;86.37
26865;BME280;40618;51.166;10.322;2022-10-24T11:44:53;96887.94;;;15.52;86.55
26865;BME280;40618;51.166;10.322;2022-10-24T11:47:53;96880.22;;;15.50;86.22
26865;BME280;40618;51.166;10.322;2022-10-24T11:53:03;96878.81;;;15.59;86.32
26865;BME280;40618;51.166;10.322;2022-10-24T11:56:12;96880.78;;;15.55;86.17
26865;BME280;40618;51.166;10.322;2022-10-24T11:58:55;96869.31;;;15.58;85.94
26865;BME280;40618;51.166;10.322;2022-10-24T12:10:41;96877.38;;;15.84;85.65
26865;BME280;40618;51.166;10.322;2022-10-24T12:19:40;96869.47;;;16.00;85.49
26865;BME280;40618;51.166;10.322;2022-10-24T12:22:15;96866.09;;;15.98;85.31
26865;BME280;40618;51.166;10.322;2022-10-24T12:24:46;96862.56;;;15.99;85.10
26865;BME280;40618;51.166;10.322;2022-10-24T12:27:26;96863.56;;;16.11;84.85
26865;BME280;40618;51.166;10.322;2022-10-24T12:30:02;96866.25;;;16.23;85.32
26865;BME280;40618;51.166;10.322;2022-10-24T12:32:46;96867.00;;;16.26;84.47
26865;BME280;40618;51.166;10.322;2022-10-24T12:35:46;96874.94;;;16.24;84.32
26865;BME280;40618;51.166;10.322;2022-10-24T12:47:00;96886.03;;;16.28;83.00
26865;BME280;40618;51.166;10.322;2022-10-24T12:49:41;96888.72;;;16.26;83.03
26865;BME280;40618;51.166;10.322;2022-10-24T12:52:48;96897.69;;;16.22;82.76
26865;BME280;40618;51.166;10.322;2022-10-24T12:56:00;96900.97;;;16.26;82.69
26865;BME280;40618;51.166;10.322;2022-10-24T13:04:00;96889.00;;;16.36;82.19
26865;BME280;40618;51.166;10.322;2022-10-24T13:06:40;96870.72;;;16.36;82.20
26865;BME280;40618;51.166;10.322;2022-10-24T13:09:27;96879.66;;;16.46;82.23
26865;BME280;40618;51.166;10.322;2022-10-24T13:12:28;96866.38;;;16.49;81.52
26865;BME280;40618;51.166;10.322;2022-10-24T13:18:04;96856.69;;;16.51;81.85
26865;BME280;40618;51.166;10.322;2022-10-24T13:20:45;96867.41;;;16.61;81.50
26865;BME280;40618;51.166;10.322;2022-10-24T13:23:22;96865.34;;;16.66;81.03
26865;BME280;40618;51.166;10.322;2022-10-24T13:25:54;96870.25;;;16.71;80.95
26865;BME280;40618;51.166;10.322;2022-10-24T13:33:42;96876.56;;;16.54;79.68
26865;BME280;40618;51.166;10.322;2022-10-24T13:38:49;96869.88;;;16.50;79.42
26865;BME280;40618;51.166;10.322;2022-10-24T13:41:35;96876.94;;;16.48;79.58
26865;BME280;40618;51.166;10.322;2022-10-24T13:45:26;96886.72;;;16.58;79.12
26865;BME280;40618;51.166;10.322;2022-10-24T13:47:30;96882.16;;;16.62;79.05
26865;BME280;40618;51.166;10.322;2022-10-24T13:50:15;96875.44;;;16.58;78.98
26865;BME280;40618;51.166;10.322;2022-10-24T13:52:55;96878.06;;;16.58;78.92
26865;BME280;40618;51.166;10.322;2022-10-24T13:55:45;96874.59;;;16.57;78.52
26865;BME280;40618;51.166;10.322;2022-10-24T13:58:24;96874.78;;;16.54;78.33
26865;BME280;40618;51.166;10.322;2022-10-24T14:01:00;96869.00;;;16.49;78.23
26865;BME280;40618;51.166;10.322;2022-10-24T14:03:30;96874.13;;;16.51;78.18
26865;BME280;40618;51.166;10.322;2022-10-24T14:06:00;96867.03;;;16.53;77.93
26865;BME280;40618;51.166;10.322;2022-10-24T14:08:34;96878.31;;;16.53;78.02
26865;BME280;40618;51.166;10.322;2022-10-24T14:11:13;96876.84;;;16.49;78.06
26865;BME280;40618;51.166;10.322;2022-10-24T14:13:46;96877.03;;;16.46;77.99
26865;BME280;40618;51.166;10.322;2022-10-24T14:16:14;96863.31;;;16.42;78.17
26865;BME280;40618;51.166;10.322;2022-10-24T14:18:40;96874.81;;;16.40;77.99
26865;BME280;40618;51.166;10.322;2022-10-24T14:21:21;96869.47;;;16.41;77.52
26865;BME280;40618;51.166;10.322;2022-10-24T14:23:56;96883.50;;;16.40;77.82
26865;BME280;40618;51.166;10.322;2022-10-24T14:26:23;96872.28;;;16.38;77.66
26865;BME280;40618;51.166;10.322;2022-10-24T14:28:54;96881.91;;;16.38;77.60
26865;BME280;40618;51.166;10.322;2022-10-24T14:31:28;96883.78;;;16.36;77.25
26865;BME280;40618;51.166;10.322;2022-10-24T14:34:00;96877.81;;;16.34;77.21
26865;BME280;40618;51.166;10.322;2022-10-24T14:36:31;96881.91;;;16.38;77.03
26865;BME280;40618;51.166;10.322;2022-10-24T14:39:03;96884.53;;;16.38;77.09
26865;BME280;40618;51.166;10.322;2022-10-24T14:41:37;96882.13;;;16.35;76.97
26865;BME280;40618;51.166;10.322;2022-10-24T14:44:05;96891.81;;;16.33;77.18
26865;BME280;40618;51.166;10.322;2022-10-24T14:49:21;96884.28;;;16.28;77.05
26865;BME280;40618;51.166;10.322;2022-10-24T14:51:55;96877.38;;;16.27;77.22
26865;BME280;40618;51.166;10.322;2022-10-24T14:54:29;96884.38;;;16.27;77.25